Time;durP1;ratioP1;P1;durP2;ratioP2;P2;SDS_P1;SDS_P2;PMS_P1;PMS_P2;Temp;Humidity;BMP_temperature;BMP_pressure;BME280_temperature;BME280_humidity;BME280_pressure;Samples;Min_cycle;Max_cycle;Signal;HPM_P1;HPM_P2
2022/08/26 00:00:29;;;;;;;21.50;9.80;;;;;;;;;;3365848;42;20100;-60
2022/08/26 00:02:55;;;;;;;19.63;9.68;;;;;;;;;;3365886;42;20161;-60
2022/08/26 00:05:21;;;;;;;18.85;9.73;;;;;;;;;;3364539;42;20164;-60
2022/08/26 00:07:48;;;;;;;20.90;9.23;;;;;;;;;;3360671;42;20110;-59
2022/08/26 00:10:14;;;;;;;21.40;9.65;;;;;;;;;;3363916;42;20139;-59
2022/08/26 00:12:40;;;;;;;21.67;9.80;;;;;;;;;;3360581;42;20566;-58
2022/08/26 00:15:06;;;;;;;20.20;9.43;;;;;;;;;;3365354;42;20094;-60
2022/08/26 00:17:32;;;;;;;20.55;9.98;;;;;;;;;;3364403;42;20139;-59
2022/08/26 00:19:59;;;;;;;21.13;10.25;;;;;;;;;;3365962;42;20167;-60
2022/08/26 00:22:25;;;;;;;19.77;9.60;;;;;;;;;;3365900;42;20115;-61
2022/08/26 00:24:51;;;;;;;20.83;10.38;;;;;;;;;;3364789;42;20151;-60
2022/08/26 00:27:17;;;;;;;19.83;9.75;;;;;;;;;;3365802;42;20162;-61
2022/08/26 00:29:43;;;;;;;21.42;10.25;;;;;;;;;;3365877;42;20079;-61
2022/08/26 00:32:09;;;;;;;17.63;9.10;;;;;;;;;;3365884;42;20099;-60
2022/08/26 00:34:35;;;;;;;20.33;9.43;;;;;;;;;;3364309;42;20148;-61
2022/08/26 00:37:01;;;;;;;20.63;10.23;;;;;;;;;;3365816;42;20088;-61
2022/08/26 00:39:27;;;;;;;21.75;10.02;;;;;;;;;;3365826;42;20088;-60
2022/08/26 00:41:53;;;;;;;19.70;10.38;;;;;;;;;;3365604;42;20098;-59
2022/08/26 00:44:20;;;;;;;18.90;9.80;;;;;;;;;;3366019;42;20094;-60
2022/08/26 00:46:51;;;;;;;20.10;9.80;;;;;;;;;;3366140;42;20088;-60
2022/08/26 00:49:24;;;;;;;20.85;9.90;;;;;;;;;;3365870;42;20079;-59
2022/08/26 00:51:54;;;;;;;20.35;10.00;;;;;;;;;;3356135;42;20108;-61
2022/08/26 00:54:22;;;;;;;23.85;11.18;;;;;;;;;;3360030;42;20644;-61
2022/08/26 00:56:52;;;;;;;23.03;10.33;;;;;;;;;;3364227;42;20565;-61
2022/08/26 00:59:18;;;;;;;19.98;10.00;;;;;;;;;;3365898;42;20169;-60
2022/08/26 01:01:44;;;;;;;23.33;9.80;;;;;;;;;;3366172;42;20107;-60
2022/08/26 01:04:11;;;;;;;19.67;9.70;;;;;;;;;;3367459;42;20107;-60
2022/08/26 01:06:37;;;;;;;21.30;10.40;;;;;;;;;;3366249;42;20544;-60
2022/08/26 01:09:03;;;;;;;20.30;10.50;;;;;;;;;;3367349;42;20087;-61
2022/08/26 01:11:29;;;;;;;23.45;10.75;;;;;;;;;;3367534;42;20096;-60
2022/08/26 01:13:55;;;;;;;22.83;10.30;;;;;;;;;;3358537;42;20084;-61
2022/08/26 01:16:23;;;;;;;20.13;10.15;;;;;;;;;;3359045;42;20100;-61
2022/08/26 01:18:49;;;;;;;20.02;10.27;;;;;;;;;;3367240;42;20134;-61
2022/08/26 01:21:31;;;;;;;23.13;10.13;;;;;;;;;;3358504;42;20145;-61
2022/08/26 01:23:57;;;;;;;21.75;11.13;;;;;;;;;;3358551;42;20095;-60
2022/08/26 01:26:34;;;;;;;23.00;10.38;;;;;;;;;;3358387;42;20110;-61
2022/08/26 01:29:01;;;;;;;20.85;10.77;;;;;;;;;;3363188;42;20126;-61
2022/08/26 01:31:38;;;;;;;23.38;10.70;;;;;;;;;;3359099;42;20779;-61
2022/08/26 01:34:22;;;;;;;25.57;10.70;;;;;;;;;;3366429;42;20123;-61
2022/08/26 01:36:49;;;;;;;24.60;10.00;;;;;;;;;;3367943;42;20107;-62
2022/08/26 01:39:15;;;;;;;20.95;10.10;;;;;;;;;;3358906;42;20204;-61
2022/08/26 01:41:41;;;;;;;19.60;10.20;;;;;;;;;;3366482;42;20110;-61
2022/08/26 01:44:08;;;;;;;24.77;11.10;;;;;;;;;;3367949;42;20080;-61
2022/08/26 01:46:34;;;;;;;20.70;10.40;;;;;;;;;;3366203;42;20354;-61
2022/08/26 01:49:02;;;;;;;21.88;10.02;;;;;;;;;;3366928;42;20494;-61
2022/08/26 01:51:28;;;;;;;21.73;10.10;;;;;;;;;;3358588;42;20547;-61
2022/08/26 01:53:54;;;;;;;20.20;10.05;;;;;;;;;;3358331;42;20829;-60
2022/08/26 01:56:21;;;;;;;19.80;10.23;;;;;;;;;;3365565;42;20824;-59
2022/08/26 01:58:56;;;;;;;24.97;10.13;;;;;;;;;;3365434;42;20315;-60
2022/08/26 02:01:22;;;;;;;20.25;10.35;;;;;;;;;;3365165;42;20088;-61
2022/08/26 02:04:05;;;;;;;22.17;11.13;;;;;;;;;;3358192;42;20122;-60
2022/08/26 02:06:32;;;;;;;20.67;10.43;;;;;;;;;;3365675;42;20147;-59
2022/08/26 02:08:59;;;;;;;22.75;10.40;;;;;;;;;;3358035;42;20099;-60
2022/08/26 02:11:25;;;;;;;21.00;10.07;;;;;;;;;;3357698;42;20118;-61
2022/08/26 02:13:54;;;;;;;21.50;9.90;;;;;;;;;;3366570;42;20497;-61
2022/08/26 02:16:21;;;;;;;20.13;9.77;;;;;;;;;;3365348;42;20119;-61
2022/08/26 02:18:47;;;;;;;20.98;9.85;;;;;;;;;;3366699;42;20097;-60
2022/08/26 02:21:13;;;;;;;18.53;9.83;;;;;;;;;;3365049;42;20471;-62
2022/08/26 02:23:39;;;;;;;20.40;10.60;;;;;;;;;;3365420;42;20313;-61
2022/08/26 02:26:13;;;;;;;21.83;10.35;;;;;;;;;;3364979;42;20620;-60
2022/08/26 02:28:49;;;;;;;22.65;10.27;;;;;;;;;;3364800;42;20098;-60
2022/08/26 02:31:15;;;;;;;21.50;10.85;;;;;;;;;;3366489;42;20098;-60
2022/08/26 02:33:41;;;;;;;21.80;10.30;;;;;;;;;;3366670;42;20552;-61
2022/08/26 02:36:07;;;;;;;19.77;10.25;;;;;;;;;;3366445;42;20505;-61
2022/08/26 02:38:34;;;;;;;22.00;10.52;;;;;;;;;;3366678;42;20161;-61
2022/08/26 02:41:00;;;;;;;20.27;10.27;;;;;;;;;;3366353;42;20827;-61
2022/08/26 02:43:25;;;;;;;19.03;9.77;;;;;;;;;;3366075;42;20096;-61
2022/08/26 02:45:51;;;;;;;19.13;9.97;;;;;;;;;;3365056;42;20379;-59
2022/08/26 02:48:18;;;;;;;17.70;9.80;;;;;;;;;;3364917;42;20111;-61
2022/08/26 02:50:44;;;;;;;23.20;10.40;;;;;;;;;;3366421;42;20118;-61
2022/08/26 02:53:11;;;;;;;21.52;10.45;;;;;;;;;;3365978;42;20185;-60
2022/08/26 02:55:37;;;;;;;21.33;10.50;;;;;;;;;;3366275;42;20096;-59
2022/08/26 02:58:03;;;;;;;24.63;10.50;;;;;;;;;;3366410;42;20096;-62
2022/08/26 03:00:30;;;;;;;26.63;11.23;;;;;;;;;;3364783;42;20143;-62
2022/08/26 03:02:56;;;;;;;23.20;10.45;;;;;;;;;;3366460;42;20096;-61
2022/08/26 03:05:23;;;;;;;23.33;10.60;;;;;;;;;;3366241;42;20095;-62
2022/08/26 03:07:49;;;;;;;21.75;10.70;;;;;;;;;;3366199;42;20095;-62
2022/08/26 03:10:15;;;;;;;19.80;10.20;;;;;;;;;;3366229;42;20095;-62
2022/08/26 03:12:44;;;;;;;18.38;10.48;;;;;;;;;;3366214;42;20182;-62
2022/08/26 03:15:10;;;;;;;45.92;11.45;;;;;;;;;;3366147;42;20570;-60
2022/08/26 03:17:36;;;;;;;32.60;11.43;;;;;;;;;;3366151;42;20098;-61
2022/08/26 03:20:07;;;;;;;24.63;10.60;;;;;;;;;;3365953;42;20096;-59
2022/08/26 03:22:33;;;;;;;23.83;10.67;;;;;;;;;;3365820;42;20573;-60
2022/08/26 03:24:59;;;;;;;20.35;10.45;;;;;;;;;;3366004;42;20787;-64
2022/08/26 03:27:25;;;;;;;19.98;10.40;;;;;;;;;;3365926;42;20188;-62
2022/08/26 03:32:35;;;;;;;18.57;9.70;;;;;;;;;;3366085;42;20310;-62
2022/08/26 03:35:01;;;;;;;20.60;10.98;;;;;;;;;;3366211;42;20096;-61
2022/08/26 03:37:27;;;;;;;18.77;10.68;;;;;;;;;;3365929;42;20113;-61
2022/08/26 03:39:53;;;;;;;20.13;10.68;;;;;;;;;;3365836;42;20139;-60
2022/08/26 03:42:20;;;;;;;24.23;11.67;;;;;;;;;;3365828;42;20487;-60
2022/08/26 03:44:47;;;;;;;23.48;11.02;;;;;;;;;;3364821;42;20144;-61
2022/08/26 03:47:13;;;;;;;24.17;10.85;;;;;;;;;;3365997;42;20139;-59
2022/08/26 03:49:39;;;;;;;21.63;11.00;;;;;;;;;;3365990;42;20102;-60
2022/08/26 03:52:05;;;;;;;20.80;10.90;;;;;;;;;;3365653;42;20088;-63
2022/08/26 03:54:31;;;;;;;29.57;11.37;;;;;;;;;;3365660;42;20622;-61
2022/08/26 03:56:57;;;;;;;30.10;14.65;;;;;;;;;;3364545;42;20096;-61
2022/08/26 03:59:23;;;;;;;36.42;15.57;;;;;;;;;;3365749;42;20080;-60
2022/08/26 04:01:49;;;;;;;33.42;15.15;;;;;;;;;;3364642;42;20100;-62
2022/08/26 04:04:15;;;;;;;25.73;12.03;;;;;;;;;;3365494;42;20080;-62
2022/08/26 04:06:42;;;;;;;40.55;16.95;;;;;;;;;;3365465;42;20083;-62
2022/08/26 04:09:10;;;;;;;44.80;19.17;;;;;;;;;;3365356;42;20552;-61
2022/08/26 04:11:38;;;;;;;46.42;20.40;;;;;;;;;;3364454;42;20095;-60
2022/08/26 04:14:12;;;;;;;53.60;19.67;;;;;;;;;;3365197;42;20156;-59
2022/08/26 04:16:38;;;;;;;43.47;19.87;;;;;;;;;;3365677;42;20559;-60
2022/08/26 04:19:04;;;;;;;48.60;19.35;;;;;;;;;;3365636;42;20095;-59
2022/08/26 04:21:30;;;;;;;40.72;18.90;;;;;;;;;;3361155;42;20103;-59
2022/08/26 04:23:56;;;;;;;39.25;17.73;;;;;;;;;;3364140;42;20144;-60
2022/08/26 04:26:22;;;;;;;44.90;18.60;;;;;;;;;;3358746;42;20156;-60
2022/08/26 04:28:48;;;;;;;38.40;20.38;;;;;;;;;;3362474;42;20147;-57
2022/08/26 04:31:15;;;;;;;44.58;19.45;;;;;;;;;;3365516;42;20787;-59
2022/08/26 04:33:42;;;;;;;41.80;20.80;;;;;;;;;;3366507;42;20158;-62
2022/08/26 04:36:08;;;;;;;38.70;20.20;;;;;;;;;;3367328;42;20096;-61
2022/08/26 04:38:34;;;;;;;48.23;20.93;;;;;;;;;;3366604;42;20103;-59
2022/08/26 04:41:00;;;;;;;46.90;22.48;;;;;;;;;;3367563;42;20096;-62
2022/08/26 04:43:29;;;;;;;66.07;32.13;;;;;;;;;;3366892;42;20540;-56
2022/08/26 04:46:01;;;;;;;65.82;33.47;;;;;;;;;;3367318;42;20098;-58
2022/08/26 04:48:28;;;;;;;79.40;35.90;;;;;;;;;;3360227;42;20625;-58
2022/08/26 04:50:54;;;;;;;85.75;37.33;;;;;;;;;;3367114;42;20107;-58
2022/08/26 04:53:20;;;;;;;67.82;33.55;;;;;;;;;;3366923;42;20545;-58
2022/08/26 04:55:46;;;;;;;70.25;34.40;;;;;;;;;;3365694;42;20151;-58
2022/08/26 04:58:17;;;;;;;66.57;33.20;;;;;;;;;;3366848;42;20091;-58
2022/08/26 05:00:47;;;;;;;68.77;35.37;;;;;;;;;;3367112;42;20298;-57
2022/08/26 05:03:13;;;;;;;70.35;33.08;;;;;;;;;;3366978;42;20130;-61
2022/08/26 05:05:40;;;;;;;79.50;31.45;;;;;;;;;;3367371;42;20114;-57
2022/08/26 05:08:06;;;;;;;65.65;31.40;;;;;;;;;;3367128;42;20091;-57
2022/08/26 05:10:33;;;;;;;64.60;29.95;;;;;;;;;;3366514;42;20302;-58
2022/08/26 05:13:00;;;;;;;61.83;28.00;;;;;;;;;;3366336;42;20088;-57
2022/08/26 05:15:26;;;;;;;57.38;25.40;;;;;;;;;;3362952;42;20107;-58
2022/08/26 05:17:52;;;;;;;46.40;21.08;;;;;;;;;;3361673;42;20127;-58
2022/08/26 05:20:18;;;;;;;43.42;21.65;;;;;;;;;;3366672;42;20764;-57
2022/08/26 05:22:43;;;;;;;44.30;20.27;;;;;;;;;;3362461;42;20135;-59
2022/08/26 05:25:09;;;;;;;42.88;19.98;;;;;;;;;;3359918;42;20318;-59
2022/08/26 05:27:35;;;;;;;42.72;20.80;;;;;;;;;;3361199;42;20110;-57
2022/08/26 05:30:01;;;;;;;45.50;19.93;;;;;;;;;;3362595;42;20095;-59
2022/08/26 05:32:27;;;;;;;42.42;20.52;;;;;;;;;;3367285;42;20092;-59
2022/08/26 05:34:54;;;;;;;43.22;21.30;;;;;;;;;;3362037;42;20104;-58
2022/08/26 05:37:20;;;;;;;45.55;23.48;;;;;;;;;;3362491;42;20114;-59
2022/08/26 05:39:46;;;;;;;51.83;23.45;;;;;;;;;;3363357;42;20092;-57
2022/08/26 05:42:12;;;;;;;49.63;23.03;;;;;;;;;;3363845;42;20182;-57
2022/08/26 05:44:38;;;;;;;48.35;23.88;;;;;;;;;;3361441;42;20091;-58
2022/08/26 05:47:05;;;;;;;50.20;22.92;;;;;;;;;;3362127;42;20127;-57
2022/08/26 05:49:31;;;;;;;61.40;25.30;;;;;;;;;;3363402;42;20140;-58
2022/08/26 05:51:57;;;;;;;61.73;25.03;;;;;;;;;;3364480;42;20088;-59
2022/08/26 05:54:23;;;;;;;59.38;24.80;;;;;;;;;;3363410;42;20138;-58
2022/08/26 05:56:50;;;;;;;57.33;24.15;;;;;;;;;;3362887;42;20084;-58
2022/08/26 05:59:17;;;;;;;42.50;19.13;;;;;;;;;;3366169;42;20102;-58
2022/08/26 06:01:43;;;;;;;43.47;19.60;;;;;;;;;;3366061;42;20118;-59
2022/08/26 06:04:09;;;;;;;41.08;16.50;;;;;;;;;;3366495;42;20138;-60
2022/08/26 06:06:35;;;;;;;28.33;14.32;;;;;;;;;;3359693;42;20100;-59
2022/08/26 06:09:02;;;;;;;27.08;13.65;;;;;;;;;;3365910;42;20566;-59
2022/08/26 06:11:30;;;;;;;24.20;11.93;;;;;;;;;;3365933;42;20095;-58
2022/08/26 06:13:58;;;;;;;22.90;12.00;;;;;;;;;;3366064;42;20602;-59
2022/08/26 06:16:24;;;;;;;22.10;12.15;;;;;;;;;;3364521;42;20174;-57
2022/08/26 06:18:51;;;;;;;22.45;12.30;;;;;;;;;;3366001;42;20163;-58
2022/08/26 06:21:22;;;;;;;23.15;11.95;;;;;;;;;;3365897;42;20138;-59
2022/08/26 06:26:34;;;;;;;22.93;11.90;;;;;;;;;;3366235;42;20129;-60
2022/08/26 06:29:00;;;;;;;26.65;10.73;;;;;;;;;;3362945;42;20106;-54
2022/08/26 06:31:26;;;;;;;23.08;10.85;;;;;;;;;;3364308;42;20568;-58
2022/08/26 06:33:52;;;;;;;23.15;10.38;;;;;;;;;;3366254;42;20084;-60
2022/08/26 06:36:24;;;;;;;29.17;12.07;;;;;;;;;;3366151;42;20166;-58
2022/08/26 06:38:51;;;;;;;20.23;10.93;;;;;;;;;;3366341;42;20303;-57
2022/08/26 06:41:17;;;;;;;18.58;10.57;;;;;;;;;;3366261;42;20088;-58
2022/08/26 06:43:43;;;;;;;21.05;10.68;;;;;;;;;;3366107;42;20139;-58
2022/08/26 06:46:11;;;;;;;18.85;10.63;;;;;;;;;;3365814;42;20150;-58
2022/08/26 06:48:37;;;;;;;22.20;11.32;;;;;;;;;;3359867;42;20151;-58
2022/08/26 06:51:07;;;;;;;25.90;11.93;;;;;;;;;;3365959;42;20084;-58
2022/08/26 06:53:34;;;;;;;23.08;11.00;;;;;;;;;;3361579;42;20177;-58
2022/08/26 06:56:02;;;;;;;20.70;12.75;;;;;;;;;;3360297;42;20084;-59
2022/08/26 06:58:28;;;;;;;19.75;11.90;;;;;;;;;;3365392;42;20118;-58
2022/08/26 07:00:54;;;;;;;21.33;11.30;;;;;;;;;;3359152;42;20083;-59
2022/08/26 07:03:20;;;;;;;23.00;11.45;;;;;;;;;;3365974;42;20554;-61
2022/08/26 07:05:47;;;;;;;20.55;11.15;;;;;;;;;;3365909;42;20088;-59
2022/08/26 07:08:14;;;;;;;20.88;12.20;;;;;;;;;;3365790;42;20096;-59
2022/08/26 07:10:41;;;;;;;24.05;12.18;;;;;;;;;;3365960;42;20084;-58
2022/08/26 07:13:07;;;;;;;22.03;12.47;;;;;;;;;;3365697;42;20134;-57
2022/08/26 07:15:34;;;;;;;24.83;11.20;;;;;;;;;;3365327;42;20114;-59
2022/08/26 07:18:01;;;;;;;21.33;11.30;;;;;;;;;;3364873;42;20096;-58
2022/08/26 07:20:27;;;;;;;20.20;10.95;;;;;;;;;;3365552;42;20498;-58
2022/08/26 07:22:53;;;;;;;16.27;10.45;;;;;;;;;;3365870;42;20510;-57
2022/08/26 07:25:21;;;;;;;18.87;10.60;;;;;;;;;;3365356;42;20098;-58
2022/08/26 07:27:47;;;;;;;18.55;11.23;;;;;;;;;;3365141;42;20079;-58
2022/08/26 07:30:13;;;;;;;20.17;11.32;;;;;;;;;;3364093;42;20182;-58
2022/08/26 07:32:40;;;;;;;17.23;10.82;;;;;;;;;;3364811;42;20099;-58
2022/08/26 07:35:06;;;;;;;19.73;11.30;;;;;;;;;;3365442;42;20107;-57
2022/08/26 07:37:32;;;;;;;24.38;12.73;;;;;;;;;;3365571;42;20566;-57
2022/08/26 07:39:58;;;;;;;18.75;10.80;;;;;;;;;;3365358;42;20104;-58
2022/08/26 07:42:24;;;;;;;22.58;12.07;;;;;;;;;;3365801;42;20170;-59
2022/08/26 07:44:50;;;;;;;25.40;11.73;;;;;;;;;;3365680;42;20088;-58
2022/08/26 07:47:16;;;;;;;23.48;11.77;;;;;;;;;;3365603;42;20485;-57
2022/08/26 07:49:42;;;;;;;21.08;12.05;;;;;;;;;;3365878;42;20106;-58
2022/08/26 07:52:08;;;;;;;17.45;11.10;;;;;;;;;;3365667;42;20079;-58
2022/08/26 07:54:36;;;;;;;19.30;11.57;;;;;;;;;;3365505;42;20147;-61
2022/08/26 07:57:03;;;;;;;24.10;15.93;;;;;;;;;;3364179;42;20130;-58
2022/08/26 07:59:29;;;;;;;29.23;14.48;;;;;;;;;;3365780;42;20554;-58
2022/08/26 08:01:57;;;;;;;34.95;15.60;;;;;;;;;;3365648;42;20174;-57
2022/08/26 08:04:24;;;;;;;27.85;14.30;;;;;;;;;;3365771;42;20096;-57
2022/08/26 08:06:49;;;;;;;24.83;12.33;;;;;;;;;;3365678;42;20099;-62
2022/08/26 08:09:15;;;;;;;25.35;11.93;;;;;;;;;;3366854;42;20092;-60
2022/08/26 08:11:42;;;;;;;23.00;11.30;;;;;;;;;;3367138;42;20107;-62
2022/08/26 08:14:08;;;;;;;22.90;11.40;;;;;;;;;;3367171;42;20092;-61
2022/08/26 08:16:34;;;;;;;20.20;11.10;;;;;;;;;;3367126;42;20102;-62
2022/08/26 08:18:59;;;;;;;23.38;11.27;;;;;;;;;;3367239;42;20652;-59
2022/08/26 08:21:26;;;;;;;24.67;11.80;;;;;;;;;;3365725;42;20697;-59
2022/08/26 08:23:52;;;;;;;21.90;10.98;;;;;;;;;;3365675;42;20558;-61
2022/08/26 08:26:18;;;;;;;23.17;10.47;;;;;;;;;;3367274;42;20099;-60
2022/08/26 08:28:45;;;;;;;18.58;10.27;;;;;;;;;;3367111;42;20088;-62
2022/08/26 08:31:19;;;;;;;19.70;10.63;;;;;;;;;;3358306;42;20135;-60
2022/08/26 08:33:45;;;;;;;18.80;10.18;;;;;;;;;;3367193;42;20126;-62
2022/08/26 08:36:13;;;;;;;20.73;10.98;;;;;;;;;;3367056;42;20227;-61
2022/08/26 08:38:39;;;;;;;21.67;10.70;;;;;;;;;;3366609;42;20130;-60
2022/08/26 08:41:11;;;;;;;18.33;10.05;;;;;;;;;;3365437;42;20102;-62
2022/08/26 08:43:39;;;;;;;19.80;10.48;;;;;;;;;;3365638;42;20561;-62
2022/08/26 08:46:11;;;;;;;18.30;9.95;;;;;;;;;;3365577;42;20100;-59
2022/08/26 08:48:42;;;;;;;22.55;10.88;;;;;;;;;;3365289;42;20156;-60
2022/08/26 08:51:23;;;;;;;17.30;9.70;;;;;;;;;;3365241;42;20132;-60
2022/08/26 08:53:51;;;;;;;17.83;10.77;;;;;;;;;;3367639;42;20579;-61
2022/08/26 08:56:25;;;;;;;18.98;9.88;;;;;;;;;;3365423;42;20131;-60
2022/08/26 08:59:23;;;;;;;16.60;9.63;;;;;;;;;;3367458;42;20122;-62
2022/08/26 09:02:05;;;;;;;19.85;9.68;;;;;;;;;;3365042;42;21012;-60
2022/08/26 09:04:36;;;;;;;16.77;9.53;;;;;;;;;;3362688;42;20084;-62
2022/08/26 09:07:03;;;;;;;18.13;9.30;;;;;;;;;;3365697;42;20168;-61
2022/08/26 09:09:39;;;;;;;16.63;9.82;;;;;;;;;;3365205;42;20080;-61
2022/08/26 09:12:08;;;;;;;21.17;9.68;;;;;;;;;;3366766;42;20114;-60
2022/08/26 09:14:34;;;;;;;17.73;9.38;;;;;;;;;;3365155;42;20100;-61
2022/08/26 09:17:19;;;;;;;21.97;10.93;;;;;;;;;;3366966;42;20492;-60
2022/08/26 09:19:48;;;;;;;22.98;10.38;;;;;;;;;;3366339;42;20151;-59
2022/08/26 09:22:31;;;;;;;15.55;9.20;;;;;;;;;;3353687;42;20110;-61
2022/08/26 09:24:57;;;;;;;16.52;9.35;;;;;;;;;;3364850;42;20113;-60
2022/08/26 09:27:44;;;;;;;18.58;9.27;;;;;;;;;;3365935;42;20170;-62
2022/08/26 09:30:23;;;;;;;15.13;9.00;;;;;;;;;;3366583;42;20167;-61
2022/08/26 09:33:05;;;;;;;15.27;9.13;;;;;;;;;;3366664;42;20084;-62
2022/08/26 09:35:33;;;;;;;18.30;9.63;;;;;;;;;;3364637;42;20091;-62
2022/08/26 09:37:59;;;;;;;18.77;9.43;;;;;;;;;;3363724;42;20174;-61
2022/08/26 09:40:32;;;;;;;16.88;9.40;;;;;;;;;;3360122;42;20100;-59
2022/08/26 09:43:14;;;;;;;16.47;9.00;;;;;;;;;;3361269;42;20099;-62
2022/08/26 09:45:42;;;;;;;16.52;9.15;;;;;;;;;;3362233;42;20162;-64
2022/08/26 09:48:08;;;;;;;15.60;9.43;;;;;;;;;;3361219;42;20091;-61
2022/08/26 09:50:37;;;;;;;17.45;9.15;;;;;;;;;;3361706;42;20526;-62
2022/08/26 09:53:15;;;;;;;16.73;9.40;;;;;;;;;;3366363;42;20131;-63
2022/08/26 09:55:43;;;;;;;14.87;9.40;;;;;;;;;;3362356;42;20115;-60
2022/08/26 09:58:30;;;;;;;17.65;9.98;;;;;;;;;;3356172;42;20139;-60
2022/08/26 10:00:57;;;;;;;20.10;10.05;;;;;;;;;;3360874;42;20075;-61
2022/08/26 10:03:26;;;;;;;16.40;9.30;;;;;;;;;;3361038;42;20081;-61
2022/08/26 10:06:00;;;;;;;16.27;10.10;;;;;;;;;;3361862;42;20551;-58
2022/08/26 10:08:30;;;;;;;16.40;9.80;;;;;;;;;;3361714;42;20098;-60
2022/08/26 10:10:58;;;;;;;14.80;9.00;;;;;;;;;;3359469;42;20140;-61
2022/08/26 10:13:30;;;;;;;18.30;9.73;;;;;;;;;;3364137;42;20093;-61
2022/08/26 10:16:07;;;;;;;17.50;9.60;;;;;;;;;;3373671;42;20099;-62
2022/08/26 10:18:41;;;;;;;16.35;9.27;;;;;;;;;;3364926;42;20222;-61
2022/08/26 10:21:13;;;;;;;20.67;10.57;;;;;;;;;;3364612;42;20091;-60
2022/08/26 10:23:45;;;;;;;18.65;10.13;;;;;;;;;;3363612;42;20570;-59
2022/08/26 10:26:38;;;;;;;14.82;8.85;;;;;;;;;;3362820;42;20236;-60
2022/08/26 10:29:40;;;;;;;20.13;9.68;;;;;;;;;;3363654;42;20095;-59
2022/08/26 10:32:40;;;;;;;18.20;10.20;;;;;;;;;;3350171;42;20092;-61
2022/08/26 10:35:10;;;;;;;15.20;9.60;;;;;;;;;;3364948;42;20554;-59
2022/08/26 10:37:47;;;;;;;16.63;8.57;;;;;;;;;;3361648;42;20139;-61
2022/08/26 10:40:28;;;;;;;13.90;8.57;;;;;;;;;;3363958;42;20568;-59
2022/08/26 10:42:57;;;;;;;15.02;9.15;;;;;;;;;;3364227;42;20135;-61
2022/08/26 10:45:26;;;;;;;16.85;9.38;;;;;;;;;;3364029;42;20087;-61
2022/08/26 10:48:00;;;;;;;15.07;8.93;;;;;;;;;;3365372;42;20103;-61
2022/08/26 10:50:38;;;;;;;16.83;8.63;;;;;;;;;;3364325;42;20505;-61
2022/08/26 10:53:14;;;;;;;14.63;9.18;;;;;;;;;;3356329;42;20096;-60
2022/08/26 10:55:49;;;;;;;18.92;10.10;;;;;;;;;;3352859;42;20095;-60
2022/08/26 10:58:17;;;;;;;19.33;10.30;;;;;;;;;;3366529;42;20096;-61
2022/08/26 11:03:42;;;;;;;17.45;10.35;;;;;;;;;;3362558;42;20091;-59
2022/08/26 11:06:17;;;;;;;19.90;9.90;;;;;;;;;;3360616;42;20501;-60
2022/08/26 11:08:53;;;;;;;17.55;9.80;;;;;;;;;;3359573;42;20100;-61
2022/08/26 11:11:41;;;;;;;18.30;10.23;;;;;;;;;;3359029;42;20188;-62
2022/08/26 11:14:19;;;;;;;18.87;10.00;;;;;;;;;;3361649;42;20084;-61
2022/08/26 11:16:50;;;;;;;17.70;9.20;;;;;;;;;;3366465;42;20230;-59
2022/08/26 11:19:38;;;;;;;17.58;9.20;;;;;;;;;;3364317;42;20107;-61
2022/08/26 11:22:24;;;;;;;17.88;9.60;;;;;;;;;;3362033;42;20160;-61
2022/08/26 11:24:56;;;;;;;16.23;9.30;;;;;;;;;;3356424;42;20579;-63
2022/08/26 11:27:25;;;;;;;13.60;8.43;;;;;;;;;;3357722;42;20118;-62
2022/08/26 11:30:34;;;;;;;18.60;9.88;;;;;;;;;;3357714;42;20103;-62
2022/08/26 11:33:00;;;;;;;16.45;9.00;;;;;;;;;;3345425;42;20108;-60
2022/08/26 11:35:26;;;;;;;17.25;10.90;;;;;;;;;;3359088;42;20467;-63
2022/08/26 11:37:55;;;;;;;20.57;10.03;;;;;;;;;;3363893;42;20472;-61
2022/08/26 11:40:29;;;;;;;20.25;9.80;;;;;;;;;;3358477;42;20106;-61
2022/08/26 11:43:19;;;;;;;17.42;9.95;;;;;;;;;;3361551;42;20110;-60
2022/08/26 11:45:47;;;;;;;16.23;9.48;;;;;;;;;;3353842;42;20136;-60
2022/08/26 11:48:16;;;;;;;16.98;9.50;;;;;;;;;;3360456;42;20562;-62
2022/08/26 11:50:52;;;;;;;16.83;10.07;;;;;;;;;;3360485;42;20092;-61
2022/08/26 11:53:18;;;;;;;13.77;8.80;;;;;;;;;;3360162;42;20544;-60
2022/08/26 11:55:44;;;;;;;15.60;9.20;;;;;;;;;;3362555;42;20481;-60
2022/08/26 11:58:11;;;;;;;14.98;9.10;;;;;;;;;;3365026;42;20558;-61
2022/08/26 12:01:02;;;;;;;18.30;9.07;;;;;;;;;;3355310;42;20092;-61
2022/08/26 12:03:37;;;;;;;14.43;8.33;;;;;;;;;;3364340;42;20096;-61
2022/08/26 12:06:19;;;;;;;15.18;8.02;;;;;;;;;;3364868;42;20098;-60
2022/08/26 12:08:45;;;;;;;15.15;8.73;;;;;;;;;;3363816;42;20084;-62
2022/08/26 12:11:22;;;;;;;17.92;9.60;;;;;;;;;;3363799;42;20162;-60
2022/08/26 12:13:54;;;;;;;19.33;9.47;;;;;;;;;;3364011;42;20265;-62
2022/08/26 12:16:28;;;;;;;18.58;9.00;;;;;;;;;;3366638;42;20139;-60
2022/08/26 12:18:55;;;;;;;17.88;8.65;;;;;;;;;;3365271;42;20142;-61
2022/08/26 12:21:23;;;;;;;17.10;9.82;;;;;;;;;;3365439;42;20155;-61
2022/08/26 12:23:51;;;;;;;16.35;8.57;;;;;;;;;;3363783;42;20139;-60
2022/08/26 12:26:26;;;;;;;14.10;8.23;;;;;;;;;;3365352;42;20139;-63
2022/08/26 12:29:05;;;;;;;15.20;8.48;;;;;;;;;;3365392;42;20100;-61
2022/08/26 12:31:42;;;;;;;15.80;8.95;;;;;;;;;;3365461;42;20558;-61
2022/08/26 12:34:10;;;;;;;14.10;8.32;;;;;;;;;;3365230;42;20110;-62
2022/08/26 12:36:46;;;;;;;17.45;8.63;;;;;;;;;;3363655;42;20131;-65
2022/08/26 12:39:36;;;;;;;15.33;8.50;;;;;;;;;;3354124;42;20096;-60
2022/08/26 12:42:06;;;;;;;15.45;8.90;;;;;;;;;;3363459;42;20474;-61
2022/08/26 12:44:46;;;;;;;14.90;8.45;;;;;;;;;;3355142;42;20096;-61
2022/08/26 12:47:42;;;;;;;17.25;8.38;;;;;;;;;;3360322;42;20088;-59
2022/08/26 12:50:11;;;;;;;16.20;9.32;;;;;;;;;;3355168;42;20174;-61
2022/08/26 12:53:00;;;;;;;18.33;8.90;;;;;;;;;;3359533;42;20101;-60
2022/08/26 12:55:31;;;;;;;20.60;10.73;;;;;;;;;;3363656;42;20191;-64
2022/08/26 12:58:37;;;;;;;17.92;9.40;;;;;;;;;;3365691;42;20135;-60
2022/08/26 13:01:03;;;;;;;15.63;9.10;;;;;;;;;;3363177;42;20513;-62
2022/08/26 13:03:37;;;;;;;14.20;8.27;;;;;;;;;;3362728;42;20686;-62
2022/08/26 13:06:21;;;;;;;20.27;10.37;;;;;;;;;;3361187;42;20298;-62
2022/08/26 13:08:52;;;;;;;18.73;10.43;;;;;;;;;;3363914;42;20110;-61
2022/08/26 13:11:19;;;;;;;15.02;8.63;;;;;;;;;;3367044;42;20629;-61
2022/08/26 13:13:47;;;;;;;15.75;8.60;;;;;;;;;;3360857;42;20547;-60
2022/08/26 13:16:13;;;;;;;17.25;8.43;;;;;;;;;;3365180;42;20095;-55
2022/08/26 13:18:39;;;;;;;15.93;8.63;;;;;;;;;;3364516;42;20088;-60
2022/08/26 13:21:20;;;;;;;20.05;8.27;;;;;;;;;;3366104;42;20522;-61
2022/08/26 13:23:46;;;;;;;14.38;8.15;;;;;;;;;;3363734;42;20092;-61
2022/08/26 13:26:12;;;;;;;13.38;7.38;;;;;;;;;;3364484;42;20091;-59
2022/08/26 13:28:38;;;;;;;13.95;7.93;;;;;;;;;;3366299;42;20171;-63
2022/08/26 13:31:04;;;;;;;16.47;8.57;;;;;;;;;;3366624;42;20175;-62
2022/08/26 13:33:31;;;;;;;18.60;8.07;;;;;;;;;;3357804;42;20099;-62
2022/08/26 13:35:57;;;;;;;15.38;8.55;;;;;;;;;;3371318;42;20118;-64
2022/08/26 13:38:23;;;;;;;14.18;7.70;;;;;;;;;;3365222;42;20546;-62
2022/08/26 13:40:50;;;;;;;14.20;7.63;;;;;;;;;;3366740;42;20087;-63
2022/08/26 13:43:16;;;;;;;16.05;8.00;;;;;;;;;;3366572;42;20155;-61
2022/08/26 13:45:42;;;;;;;16.05;8.80;;;;;;;;;;3366172;42;20103;-62
2022/08/26 13:48:08;;;;;;;15.07;9.00;;;;;;;;;;3366274;42;20182;-61
2022/08/26 13:50:34;;;;;;;17.80;8.40;;;;;;;;;;3366828;42;20660;-62
2022/08/26 13:53:00;;;;;;;14.30;7.90;;;;;;;;;;3366141;42;20567;-60
2022/08/26 13:55:27;;;;;;;14.80;7.95;;;;;;;;;;3366461;42;20090;-61
2022/08/26 13:57:55;;;;;;;16.15;8.90;;;;;;;;;;3366243;42;20235;-61
2022/08/26 14:00:22;;;;;;;16.58;7.95;;;;;;;;;;3366602;42;20631;-61
2022/08/26 14:02:48;;;;;;;16.25;7.88;;;;;;;;;;3364440;42;20152;-65
2022/08/26 14:05:13;;;;;;;17.40;8.60;;;;;;;;;;3366871;42;20079;-61
2022/08/26 14:07:39;;;;;;;15.35;8.65;;;;;;;;;;3365655;42;20083;-62
2022/08/26 14:10:06;;;;;;;18.38;8.75;;;;;;;;;;3366165;42;20079;-61
2022/08/26 14:12:32;;;;;;;17.33;8.70;;;;;;;;;;3366388;42;20130;-62
2022/08/26 14:14:59;;;;;;;15.07;8.10;;;;;;;;;;3365922;42;20096;-62
2022/08/26 14:17:25;;;;;;;15.57;8.38;;;;;;;;;;3365910;42;20092;-62
2022/08/26 14:19:51;;;;;;;13.88;7.72;;;;;;;;;;3366312;42;20088;-61
2022/08/26 14:22:18;;;;;;;14.63;7.95;;;;;;;;;;3366150;42;20193;-61
2022/08/26 14:24:44;;;;;;;14.17;8.13;;;;;;;;;;3360473;42;20114;-62
2022/08/26 14:27:11;;;;;;;14.20;7.63;;;;;;;;;;3366593;42;20176;-61
2022/08/26 14:29:37;;;;;;;17.58;8.13;;;;;;;;;;3364958;42;20140;-60
2022/08/26 14:32:10;;;;;;;14.93;7.95;;;;;;;;;;3365008;42;20092;-63
2022/08/26 14:34:38;;;;;;;16.00;8.50;;;;;;;;;;3364621;42;20147;-63
2022/08/26 14:37:06;;;;;;;16.13;8.53;;;;;;;;;;3364666;42;20087;-62
2022/08/26 14:39:33;;;;;;;15.95;8.68;;;;;;;;;;3364480;42;20177;-62
2022/08/26 14:41:59;;;;;;;17.83;8.40;;;;;;;;;;3365893;42;20178;-61